createdAt,value
2018-10-12T00:00:07.849Z,28.90
2018-10-12T00:02:41.505Z,28.57
2018-10-12T00:05:15.076Z,34.93
2018-10-12T00:07:48.115Z,30.97
2018-10-12T00:10:21.169Z,29.53
2018-10-12T00:12:53.591Z,31.50
2018-10-12T00:15:26.444Z,32.97
2018-10-12T00:18:00.044Z,29.23
2018-10-12T00:20:32.989Z,30.33
2018-10-12T00:23:06.044Z,28.77
2018-10-12T00:25:38.850Z,26.07
2018-10-12T00:28:11.437Z,14.93
2018-10-12T00:30:44.152Z,16.67
2018-10-12T00:33:16.956Z,20.33
2018-10-12T00:35:50.401Z,17.50
2018-10-12T00:38:23.320Z,14.67
2018-10-12T00:40:56.875Z,24.67
2018-10-12T00:43:30.749Z,31.57
2018-10-12T00:46:03.440Z,20.87
2018-10-12T00:48:36.388Z,13.60
2018-10-12T00:51:09.423Z,13.43
2018-10-12T00:53:42.421Z,15.60
2018-10-12T00:56:15.503Z,20.77
2018-10-12T00:58:48.089Z,25.73
2018-10-12T01:01:21.882Z,22.67
2018-10-12T01:03:54.623Z,21.47
2018-10-12T01:06:27.382Z,27.03
2018-10-12T01:09:00.516Z,26.07
2018-10-12T01:11:33.354Z,31.83
2018-10-12T01:14:06.524Z,23.50
2018-10-12T01:16:39.320Z,29.70
2018-10-12T01:19:12.064Z,26.77
2018-10-12T01:21:45.888Z,31.10
2018-10-12T01:24:18.903Z,26.43
2018-10-12T01:26:51.838Z,26.30
2018-10-12T01:29:24.977Z,25.90
2018-10-12T01:31:57.732Z,23.57
2018-10-12T01:34:30.623Z,31.13
2018-10-12T01:37:03.596Z,24.17
2018-10-12T01:39:36.412Z,31.60
2018-10-12T01:42:09.221Z,29.10
2018-10-12T01:44:42.338Z,22.60
2018-10-12T01:47:15.164Z,22.03
2018-10-12T01:49:48.222Z,27.47
2018-10-12T01:52:20.932Z,33.33
2018-10-12T01:54:53.811Z,30.30
2018-10-12T13:19:30.724Z,89.37
2018-10-12T13:22:03.308Z,86.90
2018-10-12T13:24:36.071Z,84.43
2018-10-12T13:27:08.423Z,81.77
2018-10-12T13:29:40.775Z,80.07
2018-10-12T13:32:14.328Z,70.10
2018-10-12T13:34:47.445Z,98.03
2018-10-12T13:37:20.258Z,74.30
2018-10-12T13:39:53.326Z,90.73
2018-10-12T13:42:26.241Z,84.57
2018-10-12T13:44:59.105Z,71.03
2018-10-12T13:47:31.968Z,77.60
2018-10-12T13:50:05.094Z,80.60
2018-10-12T13:52:37.917Z,70.80
2018-10-12T13:55:10.842Z,68.47
2018-10-12T13:57:43.781Z,58.00
2018-10-12T14:00:16.601Z,50.27
2018-10-12T14:02:50.872Z,51.17
2018-10-12T14:05:24.048Z,43.40
2018-10-12T14:07:57.007Z,42.80
2018-10-12T14:10:29.342Z,45.20
2018-10-12T14:13:02.467Z,43.93
2018-10-12T14:15:35.249Z,51.10
2018-10-12T14:18:08.722Z,61.97
2018-10-12T14:20:41.823Z,54.80
2018-10-12T14:23:14.662Z,75.03
2018-10-12T14:25:47.685Z,74.50
2018-10-12T14:28:19.964Z,53.00
2018-10-12T14:30:52.866Z,64.27
2018-10-12T14:33:25.129Z,54.13
2018-10-12T14:35:57.565Z,60.03
2018-10-12T14:38:29.961Z,48.50
2018-10-12T14:41:02.358Z,56.03
2018-10-12T14:43:34.710Z,48.33
2018-10-12T14:46:07.237Z,43.57
2018-10-12T14:48:39.485Z,43.57
2018-10-12T14:51:11.867Z,41.17
2018-10-12T14:53:44.153Z,38.80
2018-10-12T14:56:17.584Z,34.27
2018-10-12T14:58:49.923Z,35.77
2018-10-12T15:01:22.341Z,31.03
2018-10-12T15:03:54.899Z,29.77
2018-10-12T15:06:27.352Z,26.47
2018-10-12T15:09:08.229Z,26.35
2018-10-12T15:11:40.678Z,24.52
2018-10-12T15:14:13.653Z,21.68
2018-10-12T15:16:46.100Z,20.17
2018-10-12T15:19:18.494Z,17.12
2018-10-12T15:21:51.054Z,16.32
2018-10-12T15:24:24.515Z,12.00
2018-10-12T15:26:58.660Z,13.50
2018-10-12T15:29:30.920Z,16.55
2018-10-12T15:32:03.264Z,12.00
2018-10-12T15:34:36.392Z,19.30
2018-10-12T15:37:08.844Z,13.40
2018-10-12T15:39:41.363Z,14.38
2018-10-12T15:42:14.375Z,11.05
2018-10-12T15:44:46.915Z,16.80
2018-10-12T15:47:19.627Z,13.13
2018-10-12T15:49:53.008Z,14.07
2018-10-12T15:52:25.483Z,23.10
2018-10-12T15:54:59.090Z,13.15
2018-10-12T15:57:33.371Z,10.93
2018-10-12T16:00:06.476Z,11.73
2018-10-12T16:02:38.909Z,10.30
2018-10-12T16:05:11.737Z,12.30
2018-10-12T16:07:46.057Z,15.13
2018-10-12T16:10:49.116Z,11.22
2018-10-12T16:13:25.263Z,13.18
2018-10-12T16:15:58.848Z,15.75
2018-10-12T16:18:37.244Z,7.80
2018-10-12T16:21:11.515Z,11.15
2018-10-12T16:23:45.515Z,28.80
2018-10-12T16:26:21.692Z,10.78
2018-10-12T16:28:55.182Z,13.45
2018-10-12T16:31:28.839Z,13.13
2018-10-12T16:34:02.720Z,6.55
2018-10-12T16:36:35.483Z,11.12
2018-10-12T16:39:09.481Z,23.95
2018-10-12T16:41:42.603Z,19.45
2018-10-12T16:44:17.189Z,12.28
2018-10-12T16:46:50.980Z,9.03
2018-10-12T16:49:24.137Z,11.00
2018-10-12T16:51:56.631Z,8.45
2018-10-12T16:54:33.824Z,7.83
2018-10-12T16:57:06.240Z,8.40
2018-10-12T16:59:39.498Z,6.53
2018-10-12T17:02:11.800Z,14.80
2018-10-12T17:04:44.274Z,17.37
2018-10-12T17:07:17.358Z,8.10
2018-10-12T17:09:51.070Z,8.88
2018-10-12T17:12:23.545Z,11.15
2018-10-12T17:14:55.968Z,6.10
2018-10-12T17:17:28.649Z,9.25
2018-10-12T17:20:02.104Z,6.70
2018-10-12T17:22:35.139Z,7.33
2018-10-12T17:25:08.340Z,9.63
2018-10-12T17:27:41.394Z,9.78
2018-10-12T17:30:13.838Z,10.13
2018-10-12T17:32:46.992Z,11.80
2018-10-12T17:35:20.168Z,7.22
2018-10-12T17:37:52.961Z,7.28
2018-10-12T17:40:26.417Z,6.42
2018-10-12T17:42:59.479Z,6.92
2018-10-12T17:45:32.588Z,8.75
2018-10-12T17:48:05.771Z,9.28
2018-10-12T17:50:39.217Z,10.68
2018-10-12T17:53:12.097Z,8.45
2018-10-12T17:55:45.005Z,8.83
2018-10-12T17:58:17.280Z,8.63
2018-10-12T18:00:50.763Z,9.00
2018-10-12T18:03:23.995Z,9.48
2018-10-12T18:05:56.316Z,9.65
2018-10-12T18:08:28.701Z,13.62
2018-10-12T18:11:15.397Z,7.83
2018-10-12T18:14:01.713Z,8.88
2018-10-12T18:16:47.839Z,8.73
2018-10-12T18:19:33.761Z,6.92
2018-10-12T18:22:19.712Z,7.87
2018-10-12T18:25:05.603Z,7.80
2018-10-12T18:27:52.626Z,7.40
2018-10-12T18:30:38.535Z,7.83
2018-10-12T18:33:24.893Z,11.10
2018-10-12T18:36:11.494Z,9.58
2018-10-12T18:38:57.532Z,7.37
2018-10-12T18:41:43.544Z,14.23
2018-10-12T18:44:30.111Z,8.50
2018-10-12T18:47:16.520Z,7.92
2018-10-12T18:50:03.231Z,7.35
2018-10-12T18:52:50.002Z,8.30
2018-10-12T18:55:36.032Z,8.30
2018-10-12T18:58:22.092Z,7.12
2018-10-12T19:01:08.834Z,7.97
2018-10-12T19:03:54.912Z,7.17
2018-10-12T19:06:40.938Z,8.70
2018-10-12T19:09:28.134Z,8.05
2018-10-12T19:12:14.353Z,7.45
2018-10-12T19:15:01.923Z,8.08
2018-10-12T19:17:48.145Z,7.28
2018-10-12T19:20:35.244Z,6.97
2018-10-12T19:23:21.785Z,7.40
2018-10-12T19:26:07.804Z,7.60
2018-10-12T19:28:54.117Z,10.00
2018-10-12T19:31:40.259Z,10.10
2018-10-12T19:34:26.163Z,8.05
2018-10-12T19:37:12.263Z,7.37
2018-10-12T19:39:59.098Z,25.75
2018-10-12T19:42:45.481Z,9.40
2018-10-12T19:45:31.701Z,8.35
2018-10-12T19:48:19.345Z,10.08
2018-10-12T19:51:05.886Z,7.90
2018-10-12T19:53:52.445Z,6.90
2018-10-12T19:56:39.161Z,9.83
2018-10-12T19:59:25.320Z,31.52
2018-10-12T20:02:11.308Z,10.32
2018-10-12T20:04:57.228Z,8.65
2018-10-12T20:07:43.341Z,8.75
2018-10-12T20:10:16.137Z,8.25
2018-10-12T20:12:51.699Z,7.50
2018-10-12T20:15:24.874Z,9.70
2018-10-12T20:17:57.224Z,12.20
2018-10-12T20:20:29.616Z,8.40
2018-10-12T20:23:01.921Z,7.47
2018-10-12T20:25:37.155Z,8.53
2018-10-12T20:28:10.341Z,7.10
2018-10-12T20:30:42.625Z,10.40
2018-10-12T20:33:15.827Z,12.03
2018-10-12T20:35:48.793Z,9.75
2018-10-12T20:38:21.181Z,7.85
2018-10-12T20:40:53.438Z,9.88
2018-10-12T20:43:25.701Z,13.40
2018-10-12T20:45:57.977Z,8.43
2018-10-12T20:48:30.349Z,8.35
2018-10-12T20:51:03.355Z,6.33
2018-10-12T20:53:35.708Z,12.33
2018-10-12T20:56:08.976Z,8.10
2018-10-12T20:58:41.375Z,7.08
2018-10-12T21:01:13.595Z,9.78
2018-10-12T21:03:45.972Z,6.67
2018-10-12T21:06:18.276Z,9.18
2018-10-12T21:08:50.573Z,4.80
2018-10-12T21:11:23.446Z,8.85
2018-10-12T21:13:55.925Z,10.30
2018-10-12T21:16:29.445Z,6.05
2018-10-12T21:19:02.729Z,7.85
2018-10-12T21:21:35.289Z,7.53
2018-10-12T21:24:07.633Z,8.97
2018-10-12T21:26:39.904Z,10.20
2018-10-12T21:29:12.219Z,7.12
2018-10-12T21:31:44.435Z,4.77
2018-10-12T21:34:16.833Z,4.03
2018-10-12T21:36:49.360Z,13.77
2018-10-12T21:39:22.311Z,9.23
2018-10-12T21:41:54.783Z,5.77
2018-10-12T21:44:28.061Z,12.33
2018-10-12T21:47:00.305Z,10.27
2018-10-12T21:49:33.061Z,8.97
2018-10-12T21:52:05.312Z,6.93
2018-10-12T21:54:37.730Z,6.37
2018-10-12T21:57:10.091Z,3.83
2018-10-12T21:59:42.540Z,3.50
2018-10-12T22:02:14.764Z,2.97
2018-10-12T22:04:47.129Z,9.47
2018-10-12T22:07:19.404Z,9.83
2018-10-12T22:09:51.843Z,13.47
2018-10-12T22:12:24.112Z,10.40
2018-10-12T22:14:56.478Z,9.33
2018-10-12T22:17:29.272Z,10.63
2018-10-12T22:20:06.432Z,9.00
2018-10-12T22:22:40.680Z,8.13
2018-10-12T22:25:12.988Z,6.20
2018-10-12T22:27:45.287Z,10.30
2018-10-12T22:30:17.608Z,8.53
2018-10-12T22:32:49.918Z,9.63
2018-10-12T22:35:22.526Z,5.03
2018-10-12T22:37:56.884Z,8.13
2018-10-12T22:40:30.885Z,8.27
2018-10-12T22:43:03.429Z,7.70
2018-10-12T22:45:36.036Z,9.57
2018-10-12T22:48:08.484Z,13.60
2018-10-12T22:50:40.964Z,6.03
2018-10-12T22:53:13.838Z,10.97
2018-10-12T22:55:47.463Z,11.23
2018-10-12T22:58:20.161Z,11.80
2018-10-12T23:00:53.071Z,12.27
2018-10-12T23:03:25.791Z,8.23
2018-10-12T23:05:58.355Z,11.83
2018-10-12T23:08:30.731Z,10.97
2018-10-12T23:11:03.077Z,14.07
2018-10-12T23:13:36.269Z,8.33
2018-10-12T23:16:08.608Z,6.13
2018-10-12T23:18:41.005Z,9.77
2018-10-12T23:21:13.595Z,9.10
2018-10-12T23:23:45.920Z,16.57
2018-10-12T23:26:19.371Z,27.90
2018-10-12T23:28:51.739Z,21.13
2018-10-12T23:31:24.320Z,17.23
2018-10-12T23:34:13.844Z,19.97
2018-10-12T23:36:46.245Z,13.70
2018-10-12T23:39:19.005Z,10.77
2018-10-12T23:41:51.467Z,11.63
2018-10-12T23:44:23.790Z,13.33
2018-10-12T23:46:56.400Z,15.20
2018-10-12T23:49:29.453Z,13.87
2018-10-12T23:52:02.905Z,28.67
2018-10-12T23:54:35.154Z,12.97
2018-10-12T23:57:08.067Z,18.77
2018-10-12T23:59:40.488Z,9.33
